createdAt,value
2017-10-01T00:00:16.361Z,0
2017-10-01T00:01:26.609Z,0
2017-10-01T00:02:36.872Z,0
2017-10-01T00:03:47.128Z,0
2017-10-01T00:04:57.378Z,0
2017-10-01T00:06:07.625Z,0
2017-10-01T00:07:17.563Z,0
2017-10-01T00:08:27.809Z,0
2017-10-01T00:09:38.062Z,0
2017-10-01T00:10:48.321Z,0
2017-10-01T00:11:57.953Z,0
2017-10-01T00:13:07.902Z,0
2017-10-01T00:14:18.158Z,0
2017-10-01T00:15:28.400Z,0
2017-10-01T00:16:38.651Z,0
2017-10-01T00:17:48.893Z,0
2017-10-01T00:18:59.181Z,0
2017-10-01T00:20:09.109Z,0
2017-10-01T00:21:19.049Z,0
2017-10-01T00:22:29.308Z,0
2017-10-01T00:23:39.247Z,0
2017-10-01T00:24:49.513Z,0
2017-10-01T00:25:59.446Z,0
2017-10-01T00:27:09.394Z,0
2017-10-01T00:28:19.327Z,0
2017-10-01T00:29:29.570Z,0
2017-10-01T00:30:39.500Z,0
2017-10-01T00:31:49.431Z,0
2017-10-01T00:32:59.685Z,0
2017-10-01T00:34:09.617Z,0
2017-10-01T00:35:19.567Z,0
2017-10-01T00:36:29.800Z,0
2017-10-01T00:37:39.732Z,0
2017-10-01T00:38:49.978Z,0
2017-10-01T00:40:00.261Z,0
2017-10-01T00:41:10.506Z,0
2017-10-01T00:42:20.445Z,0
2017-10-01T00:43:30.696Z,0
2017-10-01T00:44:40.964Z,0
2017-10-01T00:45:50.582Z,0
2017-10-01T00:47:00.831Z,0
2017-10-01T00:48:11.076Z,0
2017-10-01T00:49:21.007Z,0
2017-10-01T00:50:30.933Z,0
2017-10-01T00:51:41.186Z,0
2017-10-01T00:52:51.450Z,0
2017-10-01T00:54:01.065Z,0
2017-10-01T00:55:11.317Z,0
2017-10-01T00:56:21.247Z,0
2017-10-01T00:57:31.514Z,0
2017-10-01T00:58:41.758Z,0
2017-10-01T00:59:51.693Z,0
2017-10-01T01:01:01.946Z,0
2017-10-01T01:02:12.338Z,0
2017-10-01T01:03:21.636Z,0
2017-10-01T01:04:32.334Z,0
2017-10-01T01:05:42.595Z,0
2017-10-01T01:06:52.850Z,0
2017-10-01T01:08:02.790Z,0
2017-10-01T01:09:13.034Z,0
2017-10-01T01:10:22.962Z,0
2017-10-01T01:11:33.208Z,0
2017-10-01T01:12:43.464Z,0
2017-10-01T01:13:53.714Z,0
2017-10-01T01:15:03.658Z,0
2017-10-01T01:16:13.906Z,0
2017-10-01T01:17:24.144Z,0
2017-10-01T01:18:34.080Z,0
2017-10-01T01:19:44.020Z,0
2017-10-01T01:20:54.282Z,0
2017-10-01T01:22:04.540Z,0
2017-10-01T01:23:14.794Z,0
2017-10-01T01:24:25.044Z,0
2017-10-01T01:25:34.663Z,0
2017-10-01T01:26:44.908Z,0
2017-10-01T01:27:55.160Z,0
2017-10-01T01:29:05.408Z,0
2017-10-01T01:30:15.337Z,0
2017-10-01T01:31:25.280Z,0
2017-10-01T01:32:34.908Z,0
2017-10-01T01:33:44.838Z,0
2017-10-01T01:34:54.777Z,0
2017-10-01T01:36:05.038Z,0
2017-10-01T01:37:15.297Z,0
2017-10-01T01:38:25.241Z,0
2017-10-01T01:39:35.509Z,0
2017-10-01T01:40:45.758Z,0
2017-10-01T01:41:56.021Z,0
2017-10-01T01:43:06.269Z,0
2017-10-01T01:44:16.212Z,0
2017-10-01T01:45:26.457Z,0
2017-10-01T01:46:36.722Z,0
2017-10-01T01:47:46.646Z,0
2017-10-01T01:48:56.264Z,0
2017-10-01T01:50:06.504Z,0
2017-10-01T01:51:16.754Z,0
2017-10-01T01:52:26.694Z,0
2017-10-01T01:53:36.623Z,0
2017-10-01T01:54:46.262Z,0
2017-10-01T01:55:56.194Z,0
2017-10-01T01:57:06.126Z,0
2017-10-01T01:58:16.361Z,0
2017-10-01T01:59:26.290Z,0
2017-10-01T02:00:36.545Z,0
2017-10-01T02:01:46.792Z,0
2017-10-01T02:02:57.044Z,0
2017-10-01T02:04:07.301Z,0
2017-10-01T02:05:16.916Z,0
2017-10-01T02:06:27.168Z,0
2017-10-01T02:07:37.419Z,0
2017-10-01T02:08:47.354Z,0
2017-10-01T02:09:57.606Z,0
2017-10-01T02:11:07.843Z,0
2017-10-01T02:12:17.781Z,0
2017-10-01T02:13:27.730Z,0
2017-10-01T02:14:37.975Z,0
2017-10-01T02:15:48.217Z,0
2017-10-01T02:16:58.152Z,0
2017-10-01T02:18:08.411Z,0
2017-10-01T02:19:18.344Z,0
2017-10-01T02:20:28.592Z,0
2017-10-01T02:21:38.856Z,0
2017-10-01T02:22:48.799Z,0
2017-10-01T02:23:59.046Z,0
2017-10-01T02:25:08.980Z,0
2017-10-01T02:26:18.919Z,0
2017-10-01T02:27:29.177Z,0
2017-10-01T02:28:39.126Z,0
2017-10-01T02:29:49.064Z,0
2017-10-01T02:30:59.314Z,0
2017-10-01T02:32:09.574Z,0
2017-10-01T02:33:19.817Z,0
2017-10-01T02:34:30.064Z,0
2017-10-01T02:35:40.012Z,0
2017-10-01T02:36:50.291Z,0
2017-10-01T02:38:00.539Z,0
2017-10-01T02:39:10.790Z,0
2017-10-01T02:40:20.716Z,0
2017-10-01T02:41:30.652Z,0
2017-10-01T02:42:40.603Z,0
2017-10-01T02:43:50.868Z,0
2017-10-01T02:45:00.794Z,0
2017-10-01T02:46:11.063Z,0
2017-10-01T02:47:20.993Z,0
2017-10-01T02:48:31.246Z,0
2017-10-01T02:49:41.184Z,0
2017-10-01T02:50:51.129Z,0
2017-10-01T02:52:01.078Z,0
2017-10-01T02:53:11.344Z,0
2017-10-01T02:54:21.275Z,0
2017-10-01T02:55:31.212Z,0
2017-10-01T02:56:41.456Z,0
2017-10-01T02:57:51.086Z,0
2017-10-01T02:59:01.340Z,0
2017-10-01T03:00:11.587Z,0
2017-10-01T03:01:21.827Z,0
2017-10-01T03:02:32.073Z,0
2017-10-01T03:03:42.343Z,0
2017-10-01T03:04:52.585Z,0
2017-10-01T03:06:02.855Z,0
2017-10-01T03:07:13.096Z,0
2017-10-01T03:08:23.038Z,0
2017-10-01T03:09:33.293Z,0
2017-10-01T03:10:43.539Z,0
2017-10-01T03:11:53.468Z,0
2017-10-01T03:13:03.090Z,0
2017-10-01T03:14:13.344Z,0
2017-10-01T03:15:23.600Z,0
2017-10-01T03:16:33.215Z,0
2017-10-01T03:17:43.459Z,0
2017-10-01T03:18:53.079Z,0
2017-10-01T03:20:03.335Z,0
2017-10-01T03:21:12.961Z,0
2017-10-01T03:22:23.207Z,0
2017-10-01T03:23:33.454Z,0
2017-10-01T03:24:43.379Z,0
2017-10-01T03:25:53.626Z,0
2017-10-01T03:27:03.865Z,0
2017-10-01T03:28:14.120Z,0
2017-10-01T03:29:24.366Z,0
2017-10-01T03:30:34.307Z,0
2017-10-01T03:31:44.555Z,0
2017-10-01T03:32:54.788Z,0
2017-10-01T03:34:05.031Z,0
2017-10-01T03:35:15.281Z,0
2017-10-01T03:36:25.207Z,0
2017-10-01T03:37:35.138Z,0
2017-10-01T03:38:45.070Z,0
2017-10-01T03:39:55.000Z,0
2017-10-01T03:41:05.246Z,0
2017-10-01T03:42:15.487Z,0
2017-10-01T03:43:25.740Z,0
2017-10-01T03:44:35.679Z,0
2017-10-01T03:45:45.923Z,0
2017-10-01T03:46:55.540Z,0
2017-10-01T03:48:05.786Z,0
2017-10-01T03:49:15.718Z,0
2017-10-01T03:50:25.976Z,0
2017-10-01T03:51:36.227Z,0
2017-10-01T03:52:46.163Z,0
2017-10-01T03:53:56.410Z,0
2017-10-01T03:55:06.664Z,0
2017-10-01T03:56:16.936Z,0
2017-10-01T03:57:27.185Z,0
2017-10-01T03:58:36.806Z,0
2017-10-01T03:59:46.736Z,0
2017-10-01T04:00:56.980Z,0
2017-10-01T04:02:06.913Z,0
2017-10-01T04:03:16.538Z,0
2017-10-01T04:04:26.781Z,0
2017-10-01T04:05:36.093Z,0
2017-10-01T04:06:46.349Z,0
2017-10-01T04:07:56.599Z,0
2017-10-01T04:09:06.842Z,0
2017-10-01T04:10:17.098Z,0
2017-10-01T04:11:26.084Z,0
2017-10-01T04:12:36.020Z,0
2017-10-01T04:13:46.279Z,0
2017-10-01T04:14:56.535Z,0
2017-10-01T04:16:06.477Z,0
2017-10-01T04:17:16.733Z,0
2017-10-01T04:18:26.699Z,0
2017-10-01T04:19:36.956Z,0
2017-10-01T04:20:47.222Z,0
2017-10-01T04:21:57.476Z,0
2017-10-01T04:23:07.747Z,0
2017-10-01T04:24:17.359Z,0
2017-10-01T04:25:27.614Z,0
2017-10-01T04:26:37.857Z,0
2017-10-01T04:27:48.101Z,0
2017-10-01T04:28:58.339Z,0
2017-10-01T04:30:08.598Z,0
2017-10-01T04:31:18.848Z,0
2017-10-01T04:32:28.778Z,4
2017-10-01T04:33:39.035Z,0
2017-10-01T04:34:49.279Z,0
2017-10-01T04:35:59.526Z,0
2017-10-01T04:37:09.774Z,4
2017-10-01T04:38:20.025Z,0
2017-10-01T04:39:30.292Z,4
2017-10-01T04:40:40.554Z,4
2017-10-01T04:41:50.478Z,4
2017-10-01T04:43:00.728Z,8
2017-10-01T04:44:10.973Z,8
2017-10-01T04:45:20.899Z,8
2017-10-01T04:46:30.522Z,12
2017-10-01T04:47:40.768Z,16
2017-10-01T04:48:50.706Z,16
2017-10-01T04:50:00.963Z,20
2017-10-01T04:51:10.904Z,28
2017-10-01T04:52:20.835Z,32
2017-10-01T04:53:31.082Z,36
2017-10-01T04:54:41.325Z,44
2017-10-01T04:55:51.571Z,48
2017-10-01T04:57:01.188Z,56
2017-10-01T04:58:11.435Z,60
2017-10-01T04:59:21.694Z,64
2017-10-01T05:00:31.969Z,76
2017-10-01T05:01:42.220Z,84
2017-10-01T05:02:52.473Z,96
2017-10-01T05:04:02.940Z,120
2017-10-01T05:05:13.188Z,140
2017-10-01T05:06:23.115Z,172
2017-10-01T05:07:33.368Z,208
2017-10-01T05:08:43.306Z,244
2017-10-01T05:09:53.233Z,272
2017-10-01T05:11:03.166Z,296
2017-10-01T05:12:13.435Z,320
2017-10-01T05:13:23.360Z,340
2017-10-01T05:14:33.288Z,364
2017-10-01T05:15:43.214Z,388
2017-10-01T05:16:53.154Z,408
2017-10-01T05:18:03.401Z,424
2017-10-01T05:19:13.582Z,436
2017-10-01T05:20:23.826Z,452
2017-10-01T05:21:33.764Z,472
2017-10-01T05:22:43.377Z,484
2017-10-01T05:23:53.618Z,492
2017-10-01T05:25:03.233Z,504
2017-10-01T05:26:13.507Z,500
2017-10-01T05:27:23.760Z,504
2017-10-01T05:28:34.018Z,512
2017-10-01T05:29:43.960Z,524
2017-10-01T05:30:54.208Z,544
2017-10-01T05:32:04.449Z,580
2017-10-01T05:33:14.699Z,632
2017-10-01T05:34:24.938Z,704
2017-10-01T05:35:34.870Z,796
2017-10-01T05:36:44.808Z,904
2017-10-01T05:37:55.046Z,1016
2017-10-01T05:39:05.298Z,1104
2017-10-01T05:40:15.233Z,1176
2017-10-01T05:41:25.481Z,1236
2017-10-01T05:42:35.724Z,1280
2017-10-01T05:43:45.989Z,1312
2017-10-01T05:44:55.612Z,1316
2017-10-01T05:46:05.849Z,1288
2017-10-01T05:47:15.782Z,1224
2017-10-01T05:48:26.027Z,1144
2017-10-01T05:49:36.273Z,1080
2017-10-01T05:50:46.520Z,1048
2017-10-01T05:51:56.768Z,1020
2017-10-01T05:53:07.011Z,984
2017-10-01T05:54:17.249Z,944
2017-10-01T05:55:27.182Z,924
2017-10-01T05:56:37.428Z,920
2017-10-01T05:57:47.352Z,904
2017-10-01T05:58:57.297Z,892
2017-10-01T06:00:07.564Z,888
2017-10-01T06:01:17.805Z,904
2017-10-01T06:02:28.063Z,940
2017-10-01T06:03:38.309Z,984
2017-10-01T06:04:48.566Z,1032
2017-10-01T06:05:58.807Z,1100
2017-10-01T06:07:09.060Z,1184
2017-10-01T06:08:18.984Z,1280
2017-10-01T06:09:29.238Z,1364
2017-10-01T06:10:39.485Z,1400
2017-10-01T06:11:49.730Z,1380
2017-10-01T06:12:59.976Z,1364
2017-10-01T06:14:10.261Z,1368
2017-10-01T06:15:20.518Z,1364
2017-10-01T06:16:30.768Z,1352
2017-10-01T06:17:41.015Z,1364
2017-10-01T06:18:51.261Z,1364
2017-10-01T06:20:00.875Z,1376
2017-10-01T06:21:10.806Z,1384
2017-10-01T06:22:21.047Z,1364
2017-10-01T06:23:30.983Z,1336
2017-10-01T06:24:41.266Z,1324
2017-10-01T06:25:51.521Z,1320
2017-10-01T06:27:01.451Z,1328
2017-10-01T06:28:11.699Z,1348
2017-10-01T06:29:21.948Z,1404
2017-10-01T06:30:32.198Z,1512
2017-10-01T06:31:42.119Z,1688
2017-10-01T06:32:52.373Z,1916
2017-10-01T06:34:01.987Z,2176
2017-10-01T06:35:12.298Z,2496
2017-10-01T06:36:22.552Z,2836
2017-10-01T06:37:32.489Z,3132
2017-10-01T06:38:42.743Z,3296
2017-10-01T06:39:52.677Z,3300
2017-10-01T06:41:02.915Z,3236
2017-10-01T06:42:13.174Z,3260
2017-10-01T06:43:23.419Z,3380
2017-10-01T06:44:33.357Z,3568
2017-10-01T06:45:43.614Z,3812
2017-10-01T06:46:53.535Z,4016
2017-10-01T06:48:03.782Z,4148
2017-10-01T06:49:13.722Z,4220
2017-10-01T06:50:23.967Z,4284
2017-10-01T06:51:33.909Z,4284
2017-10-01T06:52:44.142Z,4140
2017-10-01T06:53:54.402Z,3972
2017-10-01T06:55:04.662Z,3900
2017-10-01T06:56:14.914Z,3920
2017-10-01T06:57:25.151Z,3896
2017-10-01T06:58:35.401Z,3696
2017-10-01T06:59:45.648Z,3376
2017-10-01T07:00:55.900Z,3084
2017-10-01T07:02:05.529Z,2908
2017-10-01T07:03:15.773Z,2780
2017-10-01T07:04:25.723Z,2732
2017-10-01T07:05:35.653Z,2724
2017-10-01T07:06:45.898Z,2684
2017-10-01T07:07:55.836Z,2524
2017-10-01T07:09:06.085Z,2328
2017-10-01T07:10:16.025Z,2248
2017-10-01T07:11:25.969Z,2212
2017-10-01T07:12:36.216Z,2176
2017-10-01T07:13:46.463Z,2132
2017-10-01T07:14:56.730Z,2044
2017-10-01T07:16:06.672Z,1904
2017-10-01T07:17:16.940Z,1780
2017-10-01T07:18:27.988Z,1748
2017-10-01T07:19:38.255Z,1800
2017-10-01T07:20:48.508Z,1920
2017-10-01T07:21:58.461Z,2076
2017-10-01T07:23:08.713Z,2284
2017-10-01T07:24:18.991Z,2524
2017-10-01T07:25:28.298Z,2740
2017-10-01T07:26:38.548Z,2952
2017-10-01T07:27:48.801Z,3072
2017-10-01T07:28:59.049Z,3096
2017-10-01T07:30:09.295Z,3156
2017-10-01T07:31:19.555Z,3340
2017-10-01T07:32:29.808Z,3564
2017-10-01T07:33:39.740Z,3816
2017-10-01T07:34:49.989Z,4056
2017-10-01T07:36:00.236Z,4172
2017-10-01T07:37:09.860Z,4092
2017-10-01T07:38:20.106Z,3920
2017-10-01T07:39:30.043Z,3784
2017-10-01T07:40:39.977Z,3652
2017-10-01T07:41:50.237Z,3588
2017-10-01T07:42:59.871Z,3580
2017-10-01T07:44:10.138Z,3548
2017-10-01T07:45:20.091Z,3516
2017-10-01T07:46:30.348Z,3500
2017-10-01T07:47:40.599Z,3456
2017-10-01T07:48:50.548Z,3424
2017-10-01T07:50:00.807Z,3412
2017-10-01T07:51:11.059Z,3360
2017-10-01T07:52:21.311Z,3216
2017-10-01T07:53:31.562Z,3100
2017-10-01T07:54:41.817Z,3064
2017-10-01T07:55:52.069Z,3048
2017-10-01T07:57:02.328Z,3048
2017-10-01T07:58:12.274Z,3088
2017-10-01T07:59:22.542Z,3184
2017-10-01T08:00:32.480Z,3256
2017-10-01T08:01:42.422Z,3264
2017-10-01T08:02:52.382Z,3268
2017-10-01T08:04:02.653Z,3364
2017-10-01T08:05:12.906Z,3420
2017-10-01T08:06:23.155Z,3472
2017-10-01T08:07:33.087Z,3600
2017-10-01T08:08:43.018Z,3788
2017-10-01T08:09:52.947Z,3980
2017-10-01T08:11:03.203Z,4144
2017-10-01T08:12:13.449Z,4280
2017-10-01T08:13:23.705Z,4304
2017-10-01T08:14:33.969Z,4176
2017-10-01T08:15:43.588Z,4140
2017-10-01T08:16:53.521Z,4256
2017-10-01T08:18:03.782Z,4592
2017-10-01T08:19:14.040Z,5092
2017-10-01T08:20:24.283Z,5520
2017-10-01T08:21:34.227Z,5560
2017-10-01T08:22:44.173Z,5560
2017-10-01T08:23:54.425Z,5844
2017-10-01T08:25:04.675Z,6276
2017-10-01T08:26:14.924Z,6596
2017-10-01T08:27:25.185Z,6768
2017-10-01T08:28:35.113Z,6788
2017-10-01T08:29:45.366Z,6604
2017-10-01T08:30:55.623Z,6480
2017-10-01T08:32:05.861Z,6376
2017-10-01T08:33:15.798Z,6380
2017-10-01T08:34:26.053Z,6520
2017-10-01T08:35:36.311Z,6608
2017-10-01T08:36:46.243Z,6016
2017-10-01T08:37:56.488Z,5520
2017-10-01T08:39:06.746Z,5252
2017-10-01T08:40:17.018Z,5324
2017-10-01T08:41:27.265Z,5544
2017-10-01T08:42:37.512Z,5552
2017-10-01T08:43:47.450Z,5504
2017-10-01T08:44:57.698Z,5624
2017-10-01T08:46:07.642Z,5836
2017-10-01T08:47:17.602Z,6196
2017-10-01T08:48:27.862Z,6636
2017-10-01T08:49:37.806Z,6780
2017-10-01T08:50:47.752Z,6836
2017-10-01T08:51:57.677Z,6896
2017-10-01T08:53:06.985Z,7068
2017-10-01T08:54:17.251Z,7080
2017-10-01T08:55:27.517Z,6808
2017-10-01T08:56:37.778Z,6748
2017-10-01T08:57:47.733Z,6880
2017-10-01T08:58:57.654Z,7016
2017-10-01T09:00:07.925Z,7112
2017-10-01T09:01:18.182Z,7172
2017-10-01T09:02:28.448Z,7144
2017-10-01T09:03:38.702Z,7296
2017-10-01T09:04:48.958Z,6688
2017-10-01T09:05:58.893Z,6576
2017-10-01T09:07:09.149Z,6732
2017-10-01T09:08:19.090Z,6600
2017-10-01T09:09:29.349Z,6272
2017-10-01T09:10:39.613Z,5952
2017-10-01T09:11:49.869Z,5760
2017-10-01T09:12:59.802Z,5772
2017-10-01T09:14:10.072Z,5912
2017-10-01T09:15:19.999Z,5916
2017-10-01T09:16:30.262Z,5948
2017-10-01T09:17:40.515Z,6176
2017-10-01T09:18:50.459Z,6724
2017-10-01T09:20:00.940Z,6956
2017-10-01T09:21:11.194Z,7272
2017-10-01T09:22:21.450Z,7620
2017-10-01T09:23:31.386Z,7916
2017-10-01T09:24:41.649Z,7800
2017-10-01T09:25:51.909Z,7560
2017-10-01T09:27:01.853Z,7024
2017-10-01T09:28:12.102Z,6872
2017-10-01T09:29:22.365Z,7140
2017-10-01T09:30:32.301Z,7228
2017-10-01T09:31:42.567Z,7344
2017-10-01T09:32:52.845Z,7892
2017-10-01T09:34:02.794Z,8264
2017-10-01T09:35:12.730Z,8952
2017-10-01T09:36:22.656Z,9272
2017-10-01T09:37:32.595Z,9716
2017-10-01T09:38:42.853Z,9312
2017-10-01T09:39:53.102Z,8872
2017-10-01T09:41:03.349Z,8452
2017-10-01T09:42:13.607Z,7508
2017-10-01T09:43:23.883Z,6860
2017-10-01T09:44:34.149Z,7104
2017-10-01T09:45:44.416Z,6972
2017-10-01T09:46:54.674Z,6744
2017-10-01T09:48:04.924Z,7208
2017-10-01T09:49:14.545Z,7580
2017-10-01T09:50:24.806Z,7952
2017-10-01T09:51:34.431Z,7932
2017-10-01T09:52:44.676Z,7588
2017-10-01T09:53:54.934Z,7536
2017-10-01T09:55:05.193Z,7248
2017-10-01T09:56:15.129Z,7208
2017-10-01T09:57:25.378Z,6968
2017-10-01T09:58:35.625Z,6836
2017-10-01T09:59:45.899Z,7256
2017-10-01T10:00:56.175Z,8324
2017-10-01T10:02:06.106Z,9972
2017-10-01T10:03:16.357Z,11480
2017-10-01T10:04:26.611Z,12168
2017-10-01T10:05:36.862Z,11096
2017-10-01T10:06:47.118Z,12020
2017-10-01T10:07:57.053Z,10732
2017-10-01T10:09:07.311Z,11396
2017-10-01T10:10:17.563Z,12184
2017-10-01T10:11:27.813Z,12528
2017-10-01T10:12:38.077Z,12384
2017-10-01T10:13:48.347Z,12228
2017-10-01T10:14:58.589Z,11952
2017-10-01T10:16:08.849Z,13076
2017-10-01T10:17:19.116Z,13212
2017-10-01T10:18:29.379Z,12728
2017-10-01T10:19:39.631Z,14228
2017-10-01T10:20:49.248Z,16544
2017-10-01T10:21:59.195Z,17224
2017-10-01T10:23:09.130Z,16296
2017-10-01T10:24:19.397Z,15892
2017-10-01T10:25:29.647Z,15908
2017-10-01T10:26:39.577Z,15492
2017-10-01T10:27:49.821Z,14884
2017-10-01T10:28:59.776Z,14640
2017-10-01T10:30:09.724Z,14908
2017-10-01T10:31:20.001Z,14800
2017-10-01T10:32:29.949Z,12568
2017-10-01T10:33:40.209Z,11312
2017-10-01T10:34:50.150Z,10816
2017-10-01T10:36:00.087Z,10632
2017-10-01T10:37:10.349Z,10348
2017-10-01T10:38:20.603Z,10184
2017-10-01T10:39:30.535Z,10424
2017-10-01T10:40:40.800Z,10780
2017-10-01T10:41:51.062Z,11592
2017-10-01T10:43:01.014Z,10496
2017-10-01T10:44:10.958Z,10292
2017-10-01T10:45:21.223Z,9760
2017-10-01T10:46:31.474Z,9448
2017-10-01T10:47:40.776Z,9180
2017-10-01T10:48:50.409Z,9308
2017-10-01T10:50:00.676Z,8760
2017-10-01T10:51:10.928Z,9364
2017-10-01T10:52:20.877Z,9456
2017-10-01T10:53:31.138Z,8764
2017-10-01T10:54:41.075Z,8656
2017-10-01T10:55:51.048Z,8320
2017-10-01T10:57:01.333Z,9120
2017-10-01T10:58:11.584Z,9500
2017-10-01T10:59:21.831Z,10812
2017-10-01T11:00:32.085Z,11956
2017-10-01T11:01:42.032Z,12064
2017-10-01T11:02:51.965Z,11812
2017-10-01T11:04:02.218Z,10812
2017-10-01T11:05:12.167Z,10956
2017-10-01T11:06:22.454Z,11828
2017-10-01T11:07:32.720Z,12084
2017-10-01T11:08:42.979Z,12688
2017-10-01T11:09:53.234Z,12236
2017-10-01T11:11:03.167Z,11308
2017-10-01T11:12:13.421Z,11032
2017-10-01T11:13:23.670Z,11960
2017-10-01T11:14:33.604Z,11016
2017-10-01T11:15:43.872Z,9716
2017-10-01T11:16:54.120Z,10532
2017-10-01T11:18:04.385Z,10280
2017-10-01T11:19:14.645Z,9880
2017-10-01T11:20:24.262Z,10024
2017-10-01T11:21:34.529Z,10696
2017-10-01T11:22:44.169Z,10276
2017-10-01T11:23:54.430Z,10320
2017-10-01T11:25:04.699Z,10616
2017-10-01T11:26:14.963Z,9344
2017-10-01T11:27:25.213Z,9476
2017-10-01T11:28:35.469Z,9692
2017-10-01T11:29:45.416Z,9856
2017-10-01T11:30:55.670Z,10108
2017-10-01T11:32:05.610Z,9968
2017-10-01T11:33:15.554Z,9100
2017-10-01T11:34:25.832Z,8516
2017-10-01T11:35:35.461Z,8964
2017-10-01T11:36:45.427Z,9596
2017-10-01T11:37:55.430Z,9960
2017-10-01T11:39:05.686Z,10536
2017-10-01T11:40:15.952Z,10424
2017-10-01T11:41:26.212Z,10264
2017-10-01T11:42:36.479Z,9860
2017-10-01T11:43:46.409Z,9368
2017-10-01T11:44:56.654Z,9320
2017-10-01T11:46:06.900Z,10012
2017-10-01T11:47:17.151Z,10932
2017-10-01T11:48:27.171Z,11844
2017-10-01T11:49:37.434Z,12896
2017-10-01T11:50:47.370Z,14208
2017-10-01T11:51:57.635Z,15728
2017-10-01T11:53:07.895Z,16528
2017-10-01T11:54:18.162Z,15908
2017-10-01T11:55:28.114Z,14272
2017-10-01T11:56:38.370Z,11652
2017-10-01T11:57:48.626Z,9644
2017-10-01T11:58:58.892Z,8856
2017-10-01T12:00:08.357Z,8236
2017-10-01T12:01:18.622Z,7300
2017-10-01T12:02:28.555Z,6320
2017-10-01T12:03:38.201Z,6316
2017-10-01T12:04:48.472Z,6468
2017-10-01T12:05:58.726Z,6684
2017-10-01T12:07:08.972Z,7092
2017-10-01T12:08:18.917Z,7532
2017-10-01T12:09:28.886Z,8072
2017-10-01T12:10:38.841Z,8696
2017-10-01T12:11:49.104Z,9360
2017-10-01T12:12:59.061Z,9864
2017-10-01T12:14:09.312Z,10192
2017-10-01T12:15:19.567Z,10464
2017-10-01T12:16:29.509Z,10408
2017-10-01T12:17:39.457Z,10172
2017-10-01T12:18:49.389Z,10128
2017-10-01T12:19:59.630Z,10108
2017-10-01T12:21:09.890Z,10280
2017-10-01T12:22:19.843Z,10264
2017-10-01T12:23:30.098Z,9728
2017-10-01T12:24:40.354Z,7964
2017-10-01T12:25:50.289Z,5896
2017-10-01T12:27:00.219Z,5148
2017-10-01T12:28:10.470Z,5200
2017-10-01T12:29:20.738Z,5364
2017-10-01T12:30:30.991Z,5472
2017-10-01T12:31:41.256Z,5652
2017-10-01T12:32:51.188Z,5312
2017-10-01T12:34:01.136Z,4948
2017-10-01T12:35:11.074Z,5056
2017-10-01T12:36:21.323Z,4856
2017-10-01T12:37:31.279Z,4616
2017-10-01T12:38:40.581Z,4492
2017-10-01T12:39:50.522Z,4292
2017-10-01T12:41:00.153Z,4088
2017-10-01T12:42:10.105Z,4008
2017-10-01T12:43:20.045Z,3808
2017-10-01T12:44:30.304Z,3744
2017-10-01T12:45:40.253Z,3784
2017-10-01T12:46:50.505Z,3816
2017-10-01T12:48:00.755Z,3800
2017-10-01T12:49:10.693Z,3900
2017-10-01T12:50:20.944Z,4072
2017-10-01T12:51:30.889Z,4252
2017-10-01T12:52:41.148Z,4492
2017-10-01T12:53:51.087Z,4772
2017-10-01T12:55:01.355Z,5012
2017-10-01T12:56:11.606Z,5160
2017-10-01T12:57:21.549Z,5268
2017-10-01T12:58:31.793Z,5348
2017-10-01T12:59:41.738Z,5648
2017-10-01T13:00:52.017Z,6044
2017-10-01T13:02:02.289Z,6532
2017-10-01T13:03:12.560Z,7116
2017-10-01T13:04:22.842Z,7748
2017-10-01T13:05:32.786Z,8388
2017-10-01T13:06:43.051Z,9208
2017-10-01T13:07:53.295Z,10492
2017-10-01T13:09:03.249Z,12196
2017-10-01T13:10:13.517Z,14184
2017-10-01T13:11:23.473Z,16324
2017-10-01T13:12:34.156Z,18848
2017-10-01T13:13:43.782Z,21248
2017-10-01T13:14:54.036Z,23072
2017-10-01T13:16:03.979Z,23968
2017-10-01T13:17:13.919Z,24096
2017-10-01T13:18:24.169Z,23936
2017-10-01T13:19:34.423Z,23904
2017-10-01T13:20:44.370Z,23904
2017-10-01T13:21:54.625Z,23392
2017-10-01T13:23:04.600Z,21696
2017-10-01T13:24:14.522Z,19072
2017-10-01T13:25:24.159Z,16612
2017-10-01T13:26:34.411Z,15264
2017-10-01T13:27:44.670Z,13420
2017-10-01T13:28:54.933Z,11728
2017-10-01T13:30:05.206Z,9412
2017-10-01T13:31:15.158Z,7452
2017-10-01T13:32:25.123Z,5612
2017-10-01T13:33:35.369Z,4248
2017-10-01T13:34:45.616Z,3760
2017-10-01T13:35:55.868Z,3600
2017-10-01T13:37:05.803Z,3824
2017-10-01T13:38:15.757Z,3988
2017-10-01T13:39:25.715Z,4296
2017-10-01T13:40:36.000Z,4492
2017-10-01T13:41:45.945Z,4532
2017-10-01T13:42:55.881Z,4576
2017-10-01T13:44:06.374Z,4528
2017-10-01T13:45:16.637Z,4476
2017-10-01T13:46:26.905Z,4460
2017-10-01T13:47:37.175Z,4568
2017-10-01T13:48:47.430Z,4712
2017-10-01T13:49:57.689Z,4852
2017-10-01T13:51:07.647Z,5024
2017-10-01T13:52:17.902Z,5304
2017-10-01T13:53:28.148Z,5576
2017-10-01T13:54:37.771Z,5732
2017-10-01T13:55:48.039Z,5764
2017-10-01T13:56:57.663Z,5600
2017-10-01T13:58:07.928Z,5364
2017-10-01T13:59:17.553Z,5088
2017-10-01T14:00:27.804Z,4908
2017-10-01T14:01:38.074Z,4760
2017-10-01T14:02:48.337Z,4652
2017-10-01T14:03:58.283Z,4776
2017-10-01T14:05:07.912Z,5072
2017-10-01T14:06:17.531Z,5472
2017-10-01T14:07:27.787Z,5992
2017-10-01T14:08:38.032Z,6520
2017-10-01T14:09:47.968Z,7084
2017-10-01T14:10:57.910Z,7352
2017-10-01T14:12:08.180Z,7200
2017-10-01T14:13:18.434Z,6980
2017-10-01T14:14:28.697Z,6824
2017-10-01T14:15:38.970Z,6880
2017-10-01T14:16:48.908Z,7140
2017-10-01T14:17:58.845Z,7432
2017-10-01T14:19:09.120Z,7532
2017-10-01T14:20:19.368Z,7480
2017-10-01T14:21:29.319Z,7424
2017-10-01T14:22:39.568Z,7404
2017-10-01T14:23:49.820Z,7544
2017-10-01T14:25:00.102Z,7748
2017-10-01T14:26:10.365Z,7948
2017-10-01T14:27:20.621Z,8388
2017-10-01T14:28:30.879Z,8956
2017-10-01T14:29:41.143Z,9204
2017-10-01T14:30:51.422Z,8988
2017-10-01T14:32:01.362Z,8476
2017-10-01T14:33:11.620Z,7992
2017-10-01T14:34:21.885Z,7496
2017-10-01T14:35:32.137Z,7044
2017-10-01T14:36:41.756Z,6684
2017-10-01T14:37:51.395Z,6580
2017-10-01T14:39:01.648Z,6696
2017-10-01T14:40:11.905Z,7004
2017-10-01T14:41:21.845Z,7564
2017-10-01T14:42:32.126Z,8460
2017-10-01T14:43:42.385Z,9320
2017-10-01T14:44:52.632Z,9848
2017-10-01T14:46:02.930Z,9940
2017-10-01T14:47:12.878Z,9804
2017-10-01T14:48:23.134Z,9684
2017-10-01T14:49:33.384Z,9556
2017-10-01T14:50:43.640Z,9328
2017-10-01T14:51:53.594Z,9004
2017-10-01T14:53:03.534Z,8636
2017-10-01T14:54:13.473Z,8292
2017-10-01T14:55:23.419Z,8140
2017-10-01T14:56:33.374Z,8216
2017-10-01T14:57:43.646Z,8824
2017-10-01T14:58:53.908Z,10040
2017-10-01T15:00:03.849Z,9500
2017-10-01T15:01:13.788Z,8196
2017-10-01T15:02:24.042Z,7224
2017-10-01T15:03:34.008Z,6616
2017-10-01T15:04:43.953Z,6028
2017-10-01T15:05:53.903Z,5660
2017-10-01T15:07:03.848Z,5816
2017-10-01T15:08:13.480Z,6224
2017-10-01T15:09:23.768Z,6272
2017-10-01T15:10:33.399Z,6036
2017-10-01T15:11:43.023Z,5976
2017-10-01T15:12:52.956Z,5760
2017-10-01T15:14:02.914Z,5580
2017-10-01T15:15:13.165Z,5416
2017-10-01T15:16:23.108Z,5804
2017-10-01T15:17:33.370Z,6472
2017-10-01T15:18:43.336Z,6796
2017-10-01T15:19:53.626Z,6544
2017-10-01T15:21:03.883Z,6112
2017-10-01T15:22:13.825Z,5152
2017-10-01T15:23:24.084Z,4136
2017-10-01T15:24:33.709Z,3492
2017-10-01T15:25:43.963Z,3124
2017-10-01T15:26:54.218Z,2944
2017-10-01T15:28:04.492Z,2884
2017-10-01T15:29:14.743Z,3000
2017-10-01T15:30:24.993Z,3040
2017-10-01T15:31:35.264Z,2860
2017-10-01T15:32:45.204Z,2776
2017-10-01T15:33:55.143Z,2724
2017-10-01T15:35:04.458Z,2600
2017-10-01T15:36:14.727Z,2416
2017-10-01T15:37:25.000Z,2228
2017-10-01T15:38:35.258Z,2212
2017-10-01T15:39:45.196Z,2348
2017-10-01T15:40:55.466Z,2636
2017-10-01T15:42:05.724Z,2916
2017-10-01T15:43:15.994Z,3164
2017-10-01T15:44:25.624Z,3256
2017-10-01T15:45:35.871Z,3188
2017-10-01T15:46:46.142Z,3096
2017-10-01T15:47:56.392Z,3000
2017-10-01T15:49:06.649Z,2756
2017-10-01T15:50:16.907Z,2340
2017-10-01T15:51:27.174Z,2192
2017-10-01T15:52:37.114Z,2104
2017-10-01T15:53:47.370Z,2000
2017-10-01T15:54:57.640Z,1900
2017-10-01T15:56:07.922Z,1852
2017-10-01T15:57:17.856Z,1824
2017-10-01T15:58:27.804Z,1832
2017-10-01T15:59:37.741Z,1876